Time;durP1;ratioP1;P1;durP2;ratioP2;P2;SDS_P1;SDS_P2;PMS_P1;PMS_P2;Temp;Humidity;BMP_temperature;BMP_pressure;BME280_temperature;BME280_humidity;BME280_pressure;Samples;Min_cycle;Max_cycle;Signal;HPM_P1;HPM_P2
2021/05/31 00:01:48;;;;;;;3.73;3.40;;;12.30;89.80;;;;;;4988954;28;20178;-63
2021/05/31 00:04:14;;;;;;;3.47;3.17;;;12.40;85.40;;;;;;4988829;28;20198;-64
2021/05/31 00:07:05;;;;;;;4.50;2.73;;;12.50;86.40;;;;;;4989041;28;20211;-64
2021/05/31 00:09:34;;;;;;;5.47;2.80;;;13.00;90.60;;;;;;4988583;28;20574;-63
2021/05/31 00:12:00;;;;;;;5.93;3.55;;;13.00;83.30;;;;;;4989070;28;20190;-64
2021/05/31 00:14:28;;;;;;;4.30;2.90;;;13.00;84.00;;;;;;4990167;28;20215;-63
2021/05/31 00:16:54;;;;;;;4.22;2.72;;;13.00;84.70;;;;;;4988988;28;20175;-63
2021/05/31 00:19:20;;;;;;;3.07;2.77;;;12.90;86.70;;;;;;4989030;28;20197;-64
2021/05/31 00:21:47;;;;;;;2.85;2.65;;;13.00;84.30;;;;;;4988943;28;20183;-63
2021/05/31 00:24:13;;;;;;;4.35;2.80;;;13.20;89.60;;;;;;4983256;28;20182;-63
2021/05/31 00:26:38;;;;;;;3.35;3.00;;;13.20;83.80;;;;;;4992019;28;20210;-64
2021/05/31 00:29:04;;;;;;;3.90;3.40;;;13.20;81.60;;;;;;4992359;28;20183;-64
2021/05/31 00:31:30;;;;;;;3.63;2.70;;;13.30;82.50;;;;;;4992364;28;20540;-64
2021/05/31 00:33:56;;;;;;;5.25;3.30;;;13.30;82.80;;;;;;4992231;28;20255;-64
2021/05/31 00:36:21;;;;;;;2.80;2.60;;;13.20;82.80;;;;;;4992358;28;20700;-64
2021/05/31 00:38:47;;;;;;;2.77;2.30;;;13.40;81.60;;;;;;4993741;28;20210;-64
2021/05/31 00:41:13;;;;;;;2.60;2.40;;;13.50;78.50;;;;;;4984165;28;20175;-64
2021/05/31 00:43:39;;;;;;;3.50;2.90;;;13.40;78.80;;;;;;4992229;28;20812;-64
2021/05/31 00:46:06;;;;;;;3.40;3.10;;;13.60;81.60;;;;;;4990187;28;20575;-64
2021/05/31 00:48:32;;;;;;;3.70;2.95;;;13.80;80.30;;;;;;4991961;28;20497;-64
2021/05/31 00:51:02;;;;;;;3.60;2.65;;;13.20;79.50;;;;;;4992605;28;20178;-63
2021/05/31 00:53:28;;;;;;;3.22;2.92;;;13.10;80.60;;;;;;4991952;28;20210;-64
2021/05/31 00:55:53;;;;;;;7.13;3.45;;;12.80;82.60;;;;;;4992142;28;20563;-63
2021/05/31 00:58:20;;;;;;;3.40;3.17;;;12.60;83.00;;;;;;4992186;28;20275;-63
2021/05/31 01:00:46;;;;;;;3.35;2.85;;;12.80;82.70;;;;;;4991788;28;20183;-63
2021/05/31 01:03:12;;;;;;;3.40;2.70;;;12.30;83.00;;;;;;4992093;28;20562;-63
2021/05/31 01:05:40;;;;;;;3.03;2.83;;;12.10;83.90;;;;;;4992003;28;20266;-64
2021/05/31 01:08:11;;;;;;;3.38;3.08;;;12.10;85.20;;;;;;4992511;28;20554;-64
2021/05/31 01:10:55;;;;;;;5.22;3.33;;;11.70;85.80;;;;;;4992094;28;20217;-64
2021/05/31 01:13:42;;;;;;;3.20;2.90;;;11.80;86.90;;;;;;4992263;28;20218;-64
2021/05/31 01:16:11;;;;;;;5.80;3.08;;;11.40;87.20;;;;;;4992223;28;20686;-64
2021/05/31 01:18:41;;;;;;;2.95;2.60;;;11.20;87.60;;;;;;4992100;28;20648;-64
2021/05/31 01:21:16;;;;;;;3.47;2.97;;;11.10;88.20;;;;;;4991482;28;20200;-63
2021/05/31 01:23:44;;;;;;;2.70;2.50;;;11.10;89.00;;;;;;4991486;28;20216;-63
2021/05/31 01:26:14;;;;;;;3.40;3.10;;;11.10;90.00;;;;;;4991282;28;20207;-64
2021/05/31 01:28:50;;;;;;;5.20;3.53;;;11.00;90.40;;;;;;4991284;28;20716;-63
2021/05/31 01:31:19;;;;;;;2.63;2.42;;;10.70;90.30;;;;;;4991072;28;20244;-63
2021/05/31 01:33:49;;;;;;;3.50;3.20;;;10.80;90.50;;;;;;4991309;28;20220;-63
2021/05/31 01:36:15;;;;;;;3.63;2.97;;;10.60;90.70;;;;;;4991033;28;20295;-64
2021/05/31 01:38:42;;;;;;;3.20;2.90;;;10.60;91.20;;;;;;4991162;28;20240;-63
2021/05/31 01:41:12;;;;;;;2.92;2.72;;;10.50;91.70;;;;;;4991181;28;20191;-64
2021/05/31 01:43:38;;;;;;;3.58;3.28;;;10.30;92.00;;;;;;4990920;28;20188;-63
2021/05/31 01:46:05;;;;;;;3.30;3.00;;;10.30;92.00;;;;;;4991066;28;20216;-64
2021/05/31 01:48:31;;;;;;;3.97;3.25;;;10.30;92.20;;;;;;4990292;28;20235;-63
2021/05/31 01:50:59;;;;;;;3.37;2.63;;;10.30;92.40;;;;;;4985439;28;20537;-64
2021/05/31 01:53:27;;;;;;;2.85;2.65;;;10.20;92.50;;;;;;4991101;28;20470;-63
2021/05/31 01:55:54;;;;;;;2.75;2.50;;;10.10;93.10;;;;;;4990567;28;20212;-63
2021/05/31 01:58:19;;;;;;;4.95;3.15;;;10.40;93.10;;;;;;4990899;28;20288;-63
2021/05/31 02:00:45;;;;;;;5.23;2.53;;;10.20;92.70;;;;;;4990646;28;20700;-64
2021/05/31 02:03:11;;;;;;;2.80;2.57;;;10.40;93.00;;;;;;4990662;28;20439;-63
2021/05/31 02:05:38;;;;;;;2.60;2.40;;;10.20;93.00;;;;;;4990576;28;20462;-63
2021/05/31 02:08:04;;;;;;;3.47;2.88;;;10.30;93.10;;;;;;4990543;28;20443;-63
2021/05/31 02:10:29;;;;;;;2.80;2.60;;;10.20;93.50;;;;;;4991960;28;20243;-63
2021/05/31 02:12:58;;;;;;;3.85;3.10;;;10.00;93.30;;;;;;4990530;28;20451;-63
2021/05/31 02:15:48;;;;;;;3.20;2.90;;;10.20;93.60;;;;;;4990155;28;20726;-63
2021/05/31 02:18:35;;;;;;;2.63;2.42;;;10.00;93.70;;;;;;4990584;28;20180;-63
2021/05/31 02:21:08;;;;;;;3.10;2.80;;;10.20;93.90;;;;;;4990181;28;20183;-63
2021/05/31 02:23:39;;;;;;;3.45;2.80;;;9.80;94.30;;;;;;4990507;28;20179;-63
2021/05/31 02:26:08;;;;;;;3.60;3.05;;;9.70;94.40;;;;;;4989744;28;20203;-64
2021/05/31 02:28:35;;;;;;;4.30;2.90;;;9.70;94.70;;;;;;4990308;28;20195;-63
2021/05/31 02:31:06;;;;;;;3.05;2.85;;;9.70;95.00;;;;;;4987610;28;20246;-63
2021/05/31 02:33:33;;;;;;;2.83;2.63;;;9.70;95.10;;;;;;4990281;28;20206;-63
2021/05/31 02:35:58;;;;;;;3.88;3.30;;;9.60;95.00;;;;;;4989820;28;20227;-63
2021/05/31 02:38:24;;;;;;;3.40;3.10;;;9.70;95.20;;;;;;4989939;28;20223;-63
2021/05/31 02:40:50;;;;;;;2.87;2.60;;;9.60;95.40;;;;;;4989964;28;20211;-63
2021/05/31 02:43:15;;;;;;;3.33;2.75;;;9.50;95.50;;;;;;4990073;28;20254;-63
2021/05/31 02:45:41;;;;;;;3.47;2.80;;;9.50;95.70;;;;;;4989304;28;20665;-63
2021/05/31 02:48:08;;;;;;;3.23;3.00;;;9.50;95.80;;;;;;4988588;28;20208;-63
2021/05/31 02:50:34;;;;;;;3.08;2.80;;;9.40;96.20;;;;;;4989462;28;20203;-63
2021/05/31 02:53:00;;;;;;;3.47;2.88;;;9.50;96.70;;;;;;4989733;28;20183;-63
2021/05/31 02:55:29;;;;;;;5.07;3.40;;;9.40;97.00;;;;;;4989819;28;20295;-63
2021/05/31 02:57:56;;;;;;;3.63;3.33;;;9.40;97.20;;;;;;4989802;28;20183;-63
2021/05/31 03:00:24;;;;;;;4.35;2.70;;;9.30;96.90;;;;;;4989473;28;20555;-63
2021/05/31 03:02:50;;;;;;;3.45;3.10;;;9.30;96.90;;;;;;4989533;28;20204;-63
2021/05/31 03:05:19;;;;;;;3.58;2.85;;;9.30;97.10;;;;;;4989571;28;20203;-63
2021/05/31 03:07:45;;;;;;;3.50;3.00;;;9.10;97.10;;;;;;4989955;28;20234;-64
2021/05/31 03:10:11;;;;;;;4.63;3.25;;;9.40;97.50;;;;;;4989334;28;20198;-63
2021/05/31 03:12:38;;;;;;;4.55;3.20;;;9.10;97.30;;;;;;4988592;28;20559;-64
2021/05/31 03:15:06;;;;;;;3.22;2.92;;;9.20;97.50;;;;;;4989217;28;20224;-63
2021/05/31 03:17:32;;;;;;;3.83;3.40;;;9.00;97.60;;;;;;4989181;28;20186;-64
2021/05/31 03:19:57;;;;;;;3.50;3.20;;;9.10;97.70;;;;;;4989558;28;20259;-64
2021/05/31 03:22:23;;;;;;;3.20;2.90;;;9.30;97.90;;;;;;4989204;28;20188;-63
2021/05/31 03:24:49;;;;;;;5.20;3.17;;;9.20;97.90;;;;;;4981815;28;20273;-63
2021/05/31 03:27:15;;;;;;;3.50;3.20;;;9.00;97.90;;;;;;4989359;28;20188;-63
2021/05/31 03:29:41;;;;;;;3.80;3.03;;;9.20;98.00;;;;;;4985637;28;20187;-64
2021/05/31 03:32:07;;;;;;;3.07;2.80;;;9.20;98.10;;;;;;4988682;28;20206;-63
2021/05/31 03:34:32;;;;;;;4.37;3.37;;;8.90;98.30;;;;;;4989159;28;20567;-63
2021/05/31 03:36:58;;;;;;;3.87;3.10;;;9.10;98.60;;;;;;4989260;28;20469;-64
2021/05/31 03:39:23;;;;;;;3.57;3.27;;;9.20;98.80;;;;;;4989288;28;20199;-63
2021/05/31 03:41:49;;;;;;;3.50;3.20;;;9.00;98.50;;;;;;4989306;28;20187;-63
2021/05/31 03:44:15;;;;;;;3.20;2.90;;;9.00;98.60;;;;;;4989012;28;20210;-63
2021/05/31 03:46:40;;;;;;;4.80;2.83;;;9.00;98.80;;;;;;4988962;28;20268;-63
2021/05/31 03:49:06;;;;;;;3.73;3.20;;;8.90;99.00;;;;;;4988916;28;20203;-62
2021/05/31 03:51:32;;;;;;;5.90;4.63;;;8.90;98.90;;;;;;4987414;28;20215;-63
2021/05/31 03:53:57;;;;;;;4.17;3.40;;;9.00;99.40;;;;;;4984837;28;20200;-63
2021/05/31 03:56:23;;;;;;;4.03;3.20;;;9.20;99.90;;;;;;4984183;28;20211;-58
2021/05/31 03:58:51;;;;;;;3.93;2.97;;;9.10;99.70;;;;;;5000115;28;20191;-58
2021/05/31 04:01:17;;;;;;;3.50;3.20;;;9.10;99.50;;;;;;4992257;28;20604;-58
2021/05/31 04:03:43;;;;;;;3.87;3.13;;;8.90;99.20;;;;;;4993262;28;20180;-59
2021/05/31 04:14:10;;;;;;;4.00;3.35;;;9.10;98.70;;;;;;4987720;28;20234;-58
2021/05/31 04:16:42;;;;;;;3.55;3.20;;;9.10;98.60;;;;;;4988254;28;20204;-58
2021/05/31 04:19:09;;;;;;;5.20;3.20;;;9.20;98.60;;;;;;4991241;28;20237;-58
2021/05/31 04:21:36;;;;;;;5.50;3.80;;;9.20;98.50;;;;;;4985076;28;20311;-58
2021/05/31 04:24:02;;;;;;;3.50;3.13;;;9.10;98.50;;;;;;5000758;28;20627;-59
2021/05/31 04:26:28;;;;;;;3.50;3.15;;;9.20;98.20;;;;;;4987823;28;20211;-58
2021/05/31 04:28:54;;;;;;;3.10;2.83;;;9.50;98.20;;;;;;4999045;28;20223;-59
2021/05/31 04:31:20;;;;;;;3.07;2.87;;;9.60;98.30;;;;;;4979979;28;20223;-58
2021/05/31 04:33:46;;;;;;;3.17;2.87;;;9.60;98.20;;;;;;4987171;28;20557;-59
2021/05/31 04:36:12;;;;;;;5.50;3.40;;;9.40;98.10;;;;;;4999880;28;20239;-57
2021/05/31 04:38:38;;;;;;;6.47;3.77;;;9.60;97.90;;;;;;4983735;28;20454;-57
2021/05/31 04:41:04;;;;;;;3.70;3.10;;;9.60;97.90;;;;;;4986889;28;20439;-57
2021/05/31 04:43:30;;;;;;;4.03;3.40;;;9.60;97.90;;;;;;4985963;28;20184;-57
2021/05/31 04:45:56;;;;;;;3.80;3.40;;;9.50;97.70;;;;;;4984800;28;20222;-57
2021/05/31 04:48:22;;;;;;;5.23;3.23;;;9.80;97.90;;;;;;4984320;28;20208;-56
2021/05/31 04:50:48;;;;;;;4.90;3.03;;;10.00;97.30;;;;;;4985825;28;20529;-59
2021/05/31 04:53:13;;;;;;;3.37;3.07;;;9.90;97.50;;;;;;4984378;28;20627;-59
2021/05/31 04:55:40;;;;;;;4.03;3.73;;;10.00;97.30;;;;;;4988106;28;20227;-59
2021/05/31 04:58:06;;;;;;;4.30;3.88;;;10.00;97.20;;;;;;4987151;28;20176;-59
2021/05/31 05:00:31;;;;;;;4.63;3.40;;;10.50;96.90;;;;;;4986574;28;20203;-59
2021/05/31 05:02:57;;;;;;;9.03;3.40;;;10.00;96.70;;;;;;4986612;28;20418;-59
2021/05/31 05:05:23;;;;;;;6.13;3.10;;;10.60;96.90;;;;;;4989313;28;20209;-59
2021/05/31 05:07:48;;;;;;;5.30;3.70;;;10.60;96.40;;;;;;4987841;28;20216;-59
2021/05/31 05:10:17;;;;;;;5.40;3.50;;;10.70;96.20;;;;;;4988855;28;20649;-59
2021/05/31 05:12:44;;;;;;;5.13;3.70;;;11.00;95.80;;;;;;4991167;28;20186;-59
2021/05/31 05:15:15;;;;;;;4.55;3.40;;;10.70;95.50;;;;;;4986923;28;20213;-58
2021/05/31 05:17:41;;;;;;;5.43;3.95;;;11.00;95.70;;;;;;4986427;28;20187;-59
2021/05/31 05:20:07;;;;;;;3.75;3.45;;;11.30;95.60;;;;;;4988428;28;20622;-59
2021/05/31 05:22:33;;;;;;;4.72;4.28;;;11.20;95.10;;;;;;4987783;28;20228;-59
2021/05/31 05:24:59;;;;;;;4.90;4.00;;;11.40;95.20;;;;;;4989724;28;20209;-60
2021/05/31 05:27:24;;;;;;;4.90;4.03;;;11.50;94.60;;;;;;4988622;28;20202;-60
2021/05/31 05:29:53;;;;;;;5.13;3.90;;;11.50;94.10;;;;;;4990746;28;20541;-59
2021/05/31 05:32:19;;;;;;;6.03;4.10;;;11.90;94.40;;;;;;4987878;28;20182;-60
2021/05/31 05:34:46;;;;;;;4.97;4.23;;;11.90;94.90;;;;;;4988451;28;20216;-60
2021/05/31 05:37:25;;;;;;;3.80;3.50;;;12.30;94.90;;;;;;4988876;28;20419;-60
2021/05/31 05:49:48;;;;;;;4.25;3.20;;;12.90;92.00;;;;;;4990643;28;20274;-60
2021/05/31 05:52:14;;;;;;;4.30;3.80;;;13.20;91.90;;;;;;4988816;28;20398;-60
2021/05/31 05:54:40;;;;;;;4.93;4.37;;;13.30;91.60;;;;;;4988900;28;20469;-60
2021/05/31 05:57:06;;;;;;;5.22;4.55;;;13.20;91.40;;;;;;4988553;28;20438;-61
2021/05/31 05:59:32;;;;;;;4.65;4.25;;;13.10;91.50;;;;;;4989102;28;20562;-61
2021/05/31 06:01:58;;;;;;;4.23;3.70;;;13.50;90.20;;;;;;4987399;28;20191;-61
2021/05/31 06:04:23;;;;;;;4.20;3.37;;;13.70;87.90;;;;;;4989554;28;20270;-60
2021/05/31 06:06:49;;;;;;;3.90;3.00;;;13.80;87.00;;;;;;4987589;28;20215;-61
2021/05/31 06:09:16;;;;;;;5.33;3.60;;;14.10;85.90;;;;;;4987372;28;20716;-60
2021/05/31 06:11:42;;;;;;;6.90;4.75;;;14.40;85.50;;;;;;4981993;28;20271;-58
2021/05/31 06:14:11;;;;;;;8.90;4.00;;;14.50;85.40;;;;;;4987587;28;20350;-58
2021/05/31 06:16:37;;;;;;;5.30;3.72;;;14.60;85.10;;;;;;4988601;28;20302;-57
2021/05/31 06:19:04;;;;;;;7.03;5.60;;;14.60;84.90;;;;;;4987124;28;20193;-60
2021/05/31 06:21:29;;;;;;;4.72;4.25;;;14.70;85.10;;;;;;4989057;28;20258;-60
2021/05/31 06:23:55;;;;;;;6.40;4.40;;;14.70;85.10;;;;;;4988628;28;20187;-59
2021/05/31 06:26:21;;;;;;;6.63;4.77;;;14.70;84.20;;;;;;4988762;28;20711;-59
2021/05/31 06:28:47;;;;;;;7.32;3.92;;;14.90;82.60;;;;;;4988313;28;20522;-59
2021/05/31 06:31:13;;;;;;;7.97;5.07;;;15.10;82.00;;;;;;4989151;28;20319;-59
2021/05/31 06:33:39;;;;;;;6.50;4.63;;;15.00;82.20;;;;;;4987386;28;20465;-59
2021/05/31 06:36:10;;;;;;;5.37;4.87;;;15.20;82.10;;;;;;4985114;28;20940;-59
2021/05/31 06:38:36;;;;;;;5.20;4.60;;;15.00;81.70;;;;;;4985518;28;20198;-58
2021/05/31 06:41:03;;;;;;;8.05;4.80;;;15.20;80.30;;;;;;4989529;28;20223;-60
2021/05/31 06:43:30;;;;;;;5.80;4.55;;;15.20;79.00;;;;;;4987534;28;20207;-59
2021/05/31 06:45:58;;;;;;;5.22;4.22;;;15.50;79.50;;;;;;4983652;28;20212;-58
2021/05/31 06:48:23;;;;;;;5.25;4.28;;;15.10;79.10;;;;;;4988129;28;20257;-59
2021/05/31 06:50:49;;;;;;;6.90;6.20;;;15.70;78.20;;;;;;4987233;28;20195;-61
2021/05/31 06:53:16;;;;;;;4.60;4.20;;;15.90;78.10;;;;;;4984935;28;20525;-58
2021/05/31 06:55:43;;;;;;;4.47;3.95;;;16.10;77.60;;;;;;4988361;28;20199;-57
2021/05/31 06:58:09;;;;;;;4.35;3.75;;;16.40;76.40;;;;;;4987153;28;20185;-57
2021/05/31 07:00:35;;;;;;;9.20;4.13;;;16.50;74.90;;;;;;4987101;28;20175;-57
2021/05/31 07:03:00;;;;;;;4.83;4.40;;;17.30;73.10;;;;;;4988952;28;20206;-58
2021/05/31 07:05:26;;;;;;;5.40;3.40;;;18.90;70.00;;;;;;4987614;28;20242;-60
2021/05/31 07:07:52;;;;;;;4.30;3.27;;;21.60;61.70;;;;;;4989103;28;20187;-57
2021/05/31 07:10:23;;;;;;;3.80;3.07;;;24.30;55.10;;;;;;4986383;28;20188;-57
2021/05/31 07:12:49;;;;;;;3.90;3.50;;;26.20;49.30;;;;;;4982924;28;20459;-58
2021/05/31 07:15:14;;;;;;;3.87;3.57;;;27.20;43.70;;;;;;4985545;28;20492;-57
2021/05/31 07:17:41;;;;;;;3.20;2.80;;;28.40;42.70;;;;;;4989161;28;20916;-57
2021/05/31 07:20:09;;;;;;;2.90;2.70;;;29.90;38.20;;;;;;4985803;28;20235;-59
2021/05/31 07:22:35;;;;;;;3.10;2.80;;;30.20;36.60;;;;;;4988791;28;20541;-59
2021/05/31 07:25:01;;;;;;;3.30;3.00;;;31.60;35.20;;;;;;4988738;28;20655;-60
2021/05/31 07:27:27;;;;;;;2.50;2.40;;;30.30;35.40;;;;;;4991118;28;20526;-59
2021/05/31 07:29:53;;;;;;;3.30;3.00;;;30.70;33.40;;;;;;4989536;28;20195;-59
2021/05/31 07:32:19;;;;;;;2.47;2.37;;;31.70;31.90;;;;;;4989289;28;20238;-58
2021/05/31 07:34:45;;;;;;;2.90;2.70;;;31.40;30.70;;;;;;4985032;28;20489;-56
2021/05/31 07:37:10;;;;;;;2.63;2.43;;;31.90;31.10;;;;;;4984498;28;20825;-58
2021/05/31 07:39:36;;;;;;;3.00;2.77;;;33.00;29.00;;;;;;4985073;28;20203;-59
2021/05/31 07:42:03;;;;;;;2.93;2.30;;;31.30;29.40;;;;;;4988522;28;20186;-58
2021/05/31 07:44:29;;;;;;;2.17;1.97;;;30.60;30.30;;;;;;4984958;28;20562;-60
2021/05/31 07:46:55;;;;;;;2.20;2.00;;;30.50;29.80;;;;;;4986865;28;20624;-58
2021/05/31 07:49:20;;;;;;;2.30;2.10;;;29.00;30.20;;;;;;4982278;28;20221;-59
2021/05/31 07:51:47;;;;;;;2.60;2.40;;;29.10;31.00;;;;;;4985678;28;20191;-59
2021/05/31 07:54:14;;;;;;;2.63;2.43;;;30.30;30.00;;;;;;4983206;28;20208;-59
2021/05/31 07:56:40;;;;;;;2.40;2.20;;;30.90;29.00;;;;;;4984654;28;20858;-59
2021/05/31 07:59:06;;;;;;;2.20;2.00;;;31.40;28.80;;;;;;4985220;28;20522;-61
2021/05/31 08:01:34;;;;;;;3.83;2.70;;;31.90;28.80;;;;;;4980786;28;20443;-58
2021/05/31 08:04:02;;;;;;;3.03;2.83;;;30.90;28.50;;;;;;4988375;28;20257;-59
2021/05/31 08:06:27;;;;;;;2.60;2.40;;;30.30;30.40;;;;;;4984481;28;20474;-59
2021/05/31 08:08:53;;;;;;;2.90;2.60;;;30.80;28.80;;;;;;4986730;28;20801;-57
2021/05/31 08:11:19;;;;;;;4.30;2.70;;;31.10;29.10;;;;;;4989600;28;20274;-57
2021/05/31 08:13:44;;;;;;;2.40;2.23;;;31.20;29.60;;;;;;4985546;28;20235;-58
2021/05/31 08:16:11;;;;;;;2.50;2.30;;;32.00;28.40;;;;;;4987514;28;20199;-58
2021/05/31 08:18:37;;;;;;;2.50;2.30;;;31.70;28.10;;;;;;4988144;28;20253;-59
2021/05/31 08:21:03;;;;;;;2.30;2.20;;;32.30;28.30;;;;;;4988374;28;20467;-60
2021/05/31 08:23:29;;;;;;;5.10;2.40;;;31.70;28.40;;;;;;4986136;28;20198;-58
2021/05/31 08:25:55;;;;;;;2.20;2.10;;;31.20;27.80;;;;;;4980227;28;20466;-59
2021/05/31 08:28:21;;;;;;;2.30;2.07;;;31.00;27.60;;;;;;4983125;28;20277;-60
2021/05/31 08:30:46;;;;;;;2.40;2.20;;;31.10;27.40;;;;;;4985761;28;20188;-61
2021/05/31 08:33:12;;;;;;;2.70;2.33;;;30.90;27.90;;;;;;4984636;28;20202;-59
2021/05/31 08:35:40;;;;;;;2.73;2.53;;;31.10;27.30;;;;;;4987498;28;20220;-59
2021/05/31 08:38:05;;;;;;;2.77;2.57;;;31.10;27.80;;;;;;4987980;28;20270;-59
2021/05/31 08:40:31;;;;;;;2.27;2.07;;;31.90;27.80;;;;;;4986629;28;20537;-59
2021/05/31 08:42:57;;;;;;;2.37;2.17;;;31.50;28.00;;;;;;4987993;28;20171;-58
2021/05/31 08:45:25;;;;;;;2.50;2.33;;;31.50;28.00;;;;;;4988146;28;20920;-56
2021/05/31 08:47:53;;;;;;;2.60;2.40;;;30.40;27.70;;;;;;4991532;28;20191;-57
2021/05/31 08:50:21;;;;;;;2.67;2.47;;;31.20;27.80;;;;;;4990720;28;20442;-59
2021/05/31 08:52:48;;;;;;;2.10;2.00;;;31.40;26.20;;;;;;4987701;28;20536;-60
2021/05/31 08:55:16;;;;;;;2.43;2.23;;;30.50;27.50;;;;;;4986683;28;20478;-61
2021/05/31 08:57:42;;;;;;;2.90;2.50;;;30.20;27.90;;;;;;4991326;28;20953;-60
2021/05/31 09:00:12;;;;;;;2.23;2.10;;;30.60;27.80;;;;;;4991717;28;20936;-60
2021/05/31 09:02:39;;;;;;;2.70;2.17;;;30.60;27.00;;;;;;4991416;28;20445;-57
2021/05/31 09:05:06;;;;;;;3.03;2.70;;;29.60;27.50;;;;;;4991196;28;20468;-60
2021/05/31 09:07:32;;;;;;;2.63;2.43;;;30.20;28.10;;;;;;4991320;28;20477;-58
2021/05/31 09:09:57;;;;;;;2.97;2.67;;;29.70;27.20;;;;;;4990123;28;20880;-59
2021/05/31 09:12:34;;;;;;;2.67;2.47;;;29.80;28.70;;;;;;4989517;28;20472;-60
2021/05/31 09:15:11;;;;;;;2.57;1.93;;;30.50;27.90;;;;;;4986894;28;20221;-57
2021/05/31 09:17:40;;;;;;;2.23;2.13;;;30.40;27.70;;;;;;4989868;28;20443;-56
2021/05/31 09:20:07;;;;;;;3.00;2.50;;;30.30;28.80;;;;;;4989705;28;20861;-57
2021/05/31 09:22:46;;;;;;;2.20;2.10;;;31.20;26.80;;;;;;4981525;28;20507;-60
2021/05/31 09:25:33;;;;;;;2.53;2.30;;;30.90;27.00;;;;;;4988990;28;20461;-59
2021/05/31 09:28:09;;;;;;;3.60;2.50;;;30.50;27.80;;;;;;4990282;28;20867;-60
2021/05/31 09:30:40;;;;;;;9.23;6.97;;;30.90;27.10;;;;;;4987385;28;20493;-60
2021/05/31 09:33:16;;;;;;;3.57;2.40;;;30.80;26.40;;;;;;4989890;28;20450;-59
2021/05/31 09:35:43;;;;;;;3.00;2.47;;;31.30;26.70;;;;;;4990691;28;20500;-59
2021/05/31 09:38:10;;;;;;;2.80;2.60;;;31.40;26.80;;;;;;4990529;28;20427;-60
2021/05/31 09:40:36;;;;;;;2.60;2.40;;;31.40;26.90;;;;;;4990370;28;20434;-59
2021/05/31 09:43:05;;;;;;;2.60;2.40;;;31.30;27.00;;;;;;4989464;28;20442;-60
2021/05/31 09:45:33;;;;;;;2.43;2.23;;;30.90;27.30;;;;;;4988290;28;20215;-58
2021/05/31 09:48:03;;;;;;;2.60;2.40;;;31.20;27.40;;;;;;4989664;28;20500;-58
2021/05/31 09:50:32;;;;;;;3.27;3.07;;;30.90;27.70;;;;;;4986108;28;20435;-60
2021/05/31 09:53:06;;;;;;;3.00;2.80;;;31.50;27.30;;;;;;4982177;28;20984;-59
2021/05/31 09:55:38;;;;;;;2.67;2.47;;;32.20;27.10;;;;;;4985513;28;20510;-60
2021/05/31 09:58:16;;;;;;;2.50;2.30;;;30.80;26.10;;;;;;4987743;28;20445;-59
2021/05/31 10:00:49;;;;;;;2.70;2.50;;;30.40;27.70;;;;;;4986193;28;20477;-60
2021/05/31 10:10:41;;;;;;;4.03;2.63;;;29.70;28.10;;;;;;4990091;28;20449;-58
2021/05/31 10:13:07;;;;;;;2.63;2.43;;;29.60;28.30;;;;;;4987836;28;21029;-58
2021/05/31 10:15:41;;;;;;;2.47;2.27;;;29.80;28.60;;;;;;4988379;28;20560;-58
2021/05/31 10:18:09;;;;;;;2.77;2.60;;;30.20;28.10;;;;;;4985091;28;20947;-60
2021/05/31 10:20:37;;;;;;;3.60;2.50;;;29.60;27.50;;;;;;4989155;28;20437;-60
2021/05/31 10:23:04;;;;;;;4.00;2.60;;;29.60;28.80;;;;;;4987370;28;20441;-58
2021/05/31 10:25:31;;;;;;;4.40;4.10;;;29.90;27.70;;;;;;4989233;28;20531;-58
2021/05/31 10:28:05;;;;;;;5.13;2.47;;;29.70;27.70;;;;;;4986560;28;20972;-59
2021/05/31 10:30:39;;;;;;;2.80;2.60;;;29.80;28.20;;;;;;4988609;28;20441;-62
2021/05/31 10:33:18;;;;;;;2.83;2.60;;;29.70;28.60;;;;;;4988666;28;20882;-59
2021/05/31 10:35:45;;;;;;;2.83;2.63;;;30.20;28.50;;;;;;4983497;28;20466;-59
2021/05/31 10:38:14;;;;;;;2.63;2.43;;;28.90;28.50;;;;;;4986901;28;20514;-59
2021/05/31 10:40:44;;;;;;;3.40;3.10;;;29.70;28.30;;;;;;4985985;28;20486;-59
2021/05/31 10:43:12;;;;;;;2.70;2.50;;;29.90;28.20;;;;;;4988032;28;20534;-59
2021/05/31 10:45:39;;;;;;;4.60;3.00;;;30.00;28.00;;;;;;4988992;28;20839;-59
2021/05/31 10:48:20;;;;;;;2.87;2.67;;;30.50;27.70;;;;;;4988636;28;20450;-59
2021/05/31 10:50:49;;;;;;;3.07;2.83;;;31.30;27.40;;;;;;4988139;28;20489;-59
2021/05/31 10:56:20;;;;;;;2.53;2.30;;;31.20;27.40;;;;;;4989276;28;20962;-59
2021/05/31 10:58:52;;;;;;;3.70;2.87;;;31.20;27.60;;;;;;4989155;28;20555;-61
2021/05/31 11:01:28;;;;;;;3.13;2.83;;;30.60;28.30;;;;;;4988921;28;20476;-59
2021/05/31 11:04:01;;;;;;;3.27;2.47;;;30.10;28.00;;;;;;4987460;28;20449;-60
2021/05/31 11:06:33;;;;;;;2.73;2.53;;;30.40;28.30;;;;;;4986208;28;20480;-60
2021/05/31 11:09:06;;;;;;;2.70;2.50;;;30.50;28.10;;;;;;4984427;28;20778;-60
2021/05/31 11:11:34;;;;;;;3.37;3.17;;;31.00;28.30;;;;;;4988539;28;20855;-60
2021/05/31 11:14:01;;;;;;;3.23;2.80;;;30.50;28.30;;;;;;4981867;28;20457;-59
2021/05/31 11:16:27;;;;;;;3.80;3.00;;;31.10;28.20;;;;;;4986454;28;20473;-60
2021/05/31 11:18:57;;;;;;;3.33;3.07;;;31.40;27.60;;;;;;5003575;28;20438;-59
2021/05/31 11:21:45;;;;;;;2.57;2.37;;;31.20;28.60;;;;;;4984086;28;20462;-59
2021/05/31 11:24:18;;;;;;;2.90;2.70;;;31.00;28.00;;;;;;4977983;28;20535;-59
2021/05/31 11:26:47;;;;;;;2.97;2.60;;;30.40;28.00;;;;;;4980725;28;20513;-59
2021/05/31 11:29:12;;;;;;;2.90;2.70;;;30.30;28.50;;;;;;4994878;28;20527;-58
2021/05/31 11:31:40;;;;;;;3.40;3.20;;;29.50;29.10;;;;;;4985075;28;20450;-59
2021/05/31 11:34:06;;;;;;;2.50;2.30;;;28.10;29.80;;;;;;4986183;28;20582;-58
2021/05/31 11:36:38;;;;;;;3.90;2.37;;;28.00;30.10;;;;;;4987809;28;20457;-57
2021/05/31 11:39:14;;;;;;;2.63;2.43;;;27.70;30.40;;;;;;4986247;28;20468;-57
2021/05/31 11:41:46;;;;;;;3.30;2.70;;;27.10;30.30;;;;;;4984351;28;20547;-58
2021/05/31 11:44:14;;;;;;;2.70;2.50;;;26.80;31.20;;;;;;4986561;28;20527;-58
2021/05/31 11:46:49;;;;;;;3.97;3.13;;;26.60;32.20;;;;;;4986997;28;20462;-57
2021/05/31 11:49:16;;;;;;;3.63;2.57;;;25.70;33.50;;;;;;4988451;28;20442;-59
2021/05/31 11:51:43;;;;;;;2.60;2.40;;;25.30;33.70;;;;;;4987558;28;20518;-58
2021/05/31 11:54:19;;;;;;;2.20;2.10;;;24.90;33.00;;;;;;4986138;28;20468;-58
2021/05/31 11:56:45;;;;;;;3.33;2.47;;;24.50;33.80;;;;;;4979981;28;20493;-59
2021/05/31 11:59:16;;;;;;;3.43;3.03;;;24.20;34.90;;;;;;4984772;28;20830;-59
2021/05/31 12:01:52;;;;;;;2.40;2.13;;;24.10;34.50;;;;;;4986939;28;20191;-59
2021/05/31 12:04:18;;;;;;;2.77;2.57;;;23.80;33.40;;;;;;4985423;28;20886;-55
2021/05/31 12:06:44;;;;;;;2.70;2.50;;;23.60;35.50;;;;;;4986743;28;20537;-62
2021/05/31 12:09:17;;;;;;;2.57;2.37;;;23.50;35.10;;;;;;4988998;28;20274;-61
2021/05/31 12:11:43;;;;;;;3.33;2.80;;;23.30;36.10;;;;;;4987475;28;20434;-57
2021/05/31 12:14:08;;;;;;;2.60;2.40;;;23.00;36.60;;;;;;4986266;28;20473;-58
2021/05/31 12:16:35;;;;;;;3.17;2.87;;;23.00;36.50;;;;;;4987295;28;20212;-58
2021/05/31 12:19:00;;;;;;;2.80;2.60;;;22.90;36.70;;;;;;4984139;28;20176;-57
2021/05/31 12:21:26;;;;;;;2.77;2.57;;;22.80;37.70;;;;;;4986529;28;21101;-58
2021/05/31 12:23:52;;;;;;;2.93;2.67;;;22.90;37.60;;;;;;4983321;28;20184;-58
2021/05/31 12:26:22;;;;;;;4.47;2.97;;;23.10;37.70;;;;;;4988936;28;20462;-58
2021/05/31 12:28:51;;;;;;;3.17;2.93;;;23.00;37.90;;;;;;4991462;28;20184;-58
2021/05/31 12:31:17;;;;;;;2.63;2.43;;;22.60;37.00;;;;;;4990078;28;20995;-59
2021/05/31 12:33:43;;;;;;;2.80;2.60;;;22.60;36.00;;;;;;4992565;28;20465;-58
2021/05/31 12:36:09;;;;;;;2.60;2.40;;;22.50;35.40;;;;;;4990848;28;20454;-58
2021/05/31 12:38:38;;;;;;;2.70;2.07;;;22.60;36.00;;;;;;4988644;28;20227;-58
2021/05/31 12:41:04;;;;;;;2.40;2.20;;;22.60;35.60;;;;;;4989105;28;20558;-58
2021/05/31 12:43:35;;;;;;;2.60;2.40;;;22.50;35.70;;;;;;4989101;28;21576;-57
2021/05/31 12:46:02;;;;;;;2.17;2.08;;;22.50;34.80;;;;;;4989939;28;20210;-58
2021/05/31 12:48:27;;;;;;;2.60;2.40;;;22.50;34.70;;;;;;4982959;28;20548;-58
2021/05/31 12:51:12;;;;;;;3.20;3.00;;;22.20;36.00;;;;;;4990845;28;20438;-58
2021/05/31 12:53:39;;;;;;;2.67;2.47;;;22.10;34.90;;;;;;4990834;28;20813;-59
2021/05/31 12:56:05;;;;;;;3.17;2.28;;;22.40;35.50;;;;;;4989216;28;20818;-58
2021/05/31 12:58:32;;;;;;;2.57;2.40;;;22.50;34.50;;;;;;4990444;28;20271;-59
2021/05/31 13:00:58;;;;;;;3.33;3.13;;;22.60;36.30;;;;;;4988560;28;20522;-57
2021/05/31 13:03:30;;;;;;;2.72;2.47;;;22.60;38.30;;;;;;4991567;28;20466;-57
2021/05/31 13:05:56;;;;;;;2.77;2.57;;;22.70;36.20;;;;;;4988476;28;20195;-57
2021/05/31 13:08:22;;;;;;;3.10;2.80;;;22.40;36.20;;;;;;4991613;28;20970;-60
2021/05/31 13:10:52;;;;;;;2.40;2.20;;;22.40;36.80;;;;;;4984137;28;20180;-59
2021/05/31 13:13:20;;;;;;;2.33;2.13;;;22.50;35.40;;;;;;4991105;28;20182;-59
2021/05/31 13:16:08;;;;;;;2.27;2.10;;;22.60;34.30;;;;;;4988316;28;20466;-60
2021/05/31 13:18:42;;;;;;;2.40;2.30;;;22.60;33.70;;;;;;4989854;28;20436;-59
2021/05/31 13:21:15;;;;;;;3.60;2.23;;;22.50;34.00;;;;;;4985831;28;20850;-60